Time;durP1;ratioP1;P1;durP2;ratioP2;P2;SDS_P1;SDS_P2;PMS_P1;PMS_P2;Temp;Humidity;BMP_temperature;BMP_pressure;BME280_temperature;BME280_humidity;BME280_pressure;Samples;Min_cycle;Max_cycle;Signal;HPM_P1;HPM_P2
2022/11/12 00:02:36;;;;;;;47.25;31.00;;;;;;;;;;5099124;28;20016;-73
2022/11/12 00:05:22;;;;;;;48.95;31.75;;;;;;;;;;5113803;28;20571;-72
2022/11/12 00:08:08;;;;;;;49.85;31.42;;;;;;;;;;5113961;28;20030;-73
2022/11/12 00:10:53;;;;;;;53.15;33.15;;;;;;;;;;5113518;28;20333;-72
2022/11/12 00:13:39;;;;;;;49.45;31.50;;;;;;;;;;5113247;28;20058;-72
2022/11/12 00:16:25;;;;;;;51.00;31.60;;;;;;;;;;5099188;28;20022;-73
2022/11/12 00:19:10;;;;;;;49.15;32.70;;;;;;;;;;5098616;28;20031;-73
2022/11/12 00:21:56;;;;;;;51.78;32.78;;;;;;;;;;5113727;28;20098;-74
2022/11/12 00:24:41;;;;;;;55.33;33.33;;;;;;;;;;5098809;28;20034;-74
2022/11/12 00:27:27;;;;;;;52.72;32.78;;;;;;;;;;5098650;28;20398;-74
2022/11/12 00:30:12;;;;;;;52.97;32.70;;;;;;;;;;5098683;28;20024;-73
2022/11/12 00:33:02;;;;;;;55.42;34.22;;;;;;;;;;5113242;28;20032;-71
2022/11/12 00:35:48;;;;;;;46.05;30.70;;;;;;;;;;5113973;28;20098;-72
2022/11/12 00:38:33;;;;;;;51.15;31.92;;;;;;;;;;5078089;28;20044;-73
2022/11/12 00:41:19;;;;;;;48.58;31.40;;;;;;;;;;5093659;28;20027;-73
2022/11/12 00:44:05;;;;;;;53.75;33.03;;;;;;;;;;5093372;28;20411;-72
2022/11/12 00:46:50;;;;;;;46.13;30.67;;;;;;;;;;5083375;28;20089;-72
2022/11/12 00:49:36;;;;;;;54.63;32.53;;;;;;;;;;5096400;28;20112;-72
2022/11/12 00:52:21;;;;;;;44.80;30.33;;;;;;;;;;5096470;28;20032;-72
2022/11/12 00:55:07;;;;;;;47.33;31.10;;;;;;;;;;5097058;28;20031;-72
2022/11/12 00:57:53;;;;;;;48.63;31.80;;;;;;;;;;5096279;28;20051;-73
2022/11/12 01:00:38;;;;;;;48.47;32.58;;;;;;;;;;5096294;28;20016;-73
2022/11/12 01:03:26;;;;;;;68.85;35.95;;;;;;;;;;5096763;28;20020;-73
2022/11/12 01:06:16;;;;;;;48.65;32.03;;;;;;;;;;5096106;28;20085;-73
2022/11/12 01:09:02;;;;;;;53.53;33.30;;;;;;;;;;5095880;28;20498;-73
2022/11/12 01:11:48;;;;;;;48.45;31.17;;;;;;;;;;5096721;28;20027;-73
2022/11/12 01:14:34;;;;;;;49.45;31.52;;;;;;;;;;5096110;28;20016;-74
2022/11/12 01:17:20;;;;;;;47.83;31.70;;;;;;;;;;5095957;28;20093;-73
2022/11/12 01:20:06;;;;;;;47.33;31.30;;;;;;;;;;5096242;28;20027;-73
2022/11/12 01:22:51;;;;;;;44.92;31.65;;;;;;;;;;5096459;28;20028;-72
2022/11/12 01:25:37;;;;;;;47.65;32.67;;;;;;;;;;5080246;28;20406;-72
2022/11/12 01:28:23;;;;;;;46.97;31.80;;;;;;;;;;5095952;28;20020;-72
2022/11/12 01:31:13;;;;;;;46.55;30.63;;;;;;;;;;5097566;28;20142;-72
2022/11/12 01:34:01;;;;;;;41.72;29.73;;;;;;;;;;5097238;28;20073;-72
2022/11/12 01:36:46;;;;;;;51.05;32.63;;;;;;;;;;5104566;28;20057;-72
2022/11/12 01:39:32;;;;;;;50.30;31.85;;;;;;;;;;5102234;28;20471;-71
2022/11/12 01:42:18;;;;;;;46.95;31.95;;;;;;;;;;5117407;28;20016;-72
2022/11/12 01:45:16;;;;;;;43.83;30.08;;;;;;;;;;5101973;28;20031;-72
2022/11/12 01:48:02;;;;;;;67.03;33.38;;;;;;;;;;5102754;28;20117;-72
2022/11/12 01:50:48;;;;;;;47.50;31.00;;;;;;;;;;5116113;28;20024;-72
2022/11/12 01:53:36;;;;;;;42.30;29.35;;;;;;;;;;5116626;28;20051;-72
2022/11/12 01:56:22;;;;;;;48.60;31.85;;;;;;;;;;5116964;28;20058;-72
2022/11/12 01:59:15;;;;;;;50.85;31.92;;;;;;;;;;5116207;28;20028;-72
2022/11/12 02:02:00;;;;;;;45.53;31.25;;;;;;;;;;5117125;28;20020;-71
2022/11/12 02:04:47;;;;;;;57.90;32.85;;;;;;;;;;5118294;28;20356;-72
2022/11/12 02:07:34;;;;;;;47.72;31.63;;;;;;;;;;5101212;28;20038;-71
2022/11/12 02:10:20;;;;;;;51.30;32.47;;;;;;;;;;5117140;28;20026;-72
2022/11/12 02:16:11;;;;;;;52.40;32.92;;;;;;;;;;5117297;28;20024;-71
2022/11/12 02:18:57;;;;;;;51.42;32.15;;;;;;;;;;5116141;28;20035;-71
2022/11/12 02:21:42;;;;;;;47.15;30.90;;;;;;;;;;5101924;28;20126;-72
2022/11/12 02:24:32;;;;;;;45.08;30.00;;;;;;;;;;5116230;28;20016;-71
2022/11/12 02:27:18;;;;;;;45.38;30.45;;;;;;;;;;5102254;28;20020;-72
2022/11/12 02:30:04;;;;;;;47.67;30.60;;;;;;;;;;5116699;28;20447;-70
2022/11/12 02:32:50;;;;;;;46.03;30.80;;;;;;;;;;5118244;28;20027;-71
2022/11/12 02:35:36;;;;;;;45.60;30.10;;;;;;;;;;5116032;28;20023;-72
2022/11/12 02:38:21;;;;;;;43.58;28.98;;;;;;;;;;5117150;28;20051;-71
2022/11/12 02:41:07;;;;;;;46.13;30.50;;;;;;;;;;5116025;28;20024;-72
2022/11/12 02:43:53;;;;;;;47.30;30.63;;;;;;;;;;5116053;28;20070;-71
2022/11/12 02:46:39;;;;;;;42.72;28.63;;;;;;;;;;5116477;28;20367;-71
2022/11/12 02:49:24;;;;;;;43.85;29.30;;;;;;;;;;5101032;28;20061;-72
2022/11/12 02:52:10;;;;;;;57.00;30.67;;;;;;;;;;5114974;28;20024;-72
2022/11/12 02:54:56;;;;;;;52.08;30.15;;;;;;;;;;5116354;28;20015;-71
2022/11/12 02:57:42;;;;;;;46.03;29.23;;;;;;;;;;5116332;28;20039;-72
2022/11/12 03:00:27;;;;;;;47.92;29.85;;;;;;;;;;5116369;28;20431;-72
2022/11/12 03:03:13;;;;;;;45.30;29.17;;;;;;;;;;5115857;28;20380;-72
2022/11/12 03:05:59;;;;;;;52.95;30.85;;;;;;;;;;5116135;28;20015;-71
2022/11/12 03:08:45;;;;;;;45.60;29.48;;;;;;;;;;5114787;28;20447;-72
2022/11/12 03:11:31;;;;;;;49.63;29.60;;;;;;;;;;5115134;28;20064;-71
2022/11/12 03:14:17;;;;;;;41.58;27.60;;;;;;;;;;5100623;28;20440;-72
2022/11/12 03:17:03;;;;;;;45.22;28.42;;;;;;;;;;5116034;28;20035;-72
2022/11/12 03:19:48;;;;;;;41.53;27.60;;;;;;;;;;5115598;28;20019;-71
2022/11/12 03:22:34;;;;;;;40.38;27.65;;;;;;;;;;5114481;28;20018;-73
2022/11/12 03:25:20;;;;;;;42.95;28.75;;;;;;;;;;5115542;28;20051;-71
2022/11/12 03:28:07;;;;;;;46.28;28.92;;;;;;;;;;5116373;28;20446;-72
2022/11/12 03:30:56;;;;;;;41.40;28.23;;;;;;;;;;5116371;28;20042;-72
2022/11/12 03:33:41;;;;;;;42.70;28.35;;;;;;;;;;5115470;28;20023;-72
2022/11/12 03:36:27;;;;;;;45.17;29.48;;;;;;;;;;5115832;28;20139;-73
2022/11/12 03:39:13;;;;;;;45.47;29.80;;;;;;;;;;5114743;28;20031;-72
2022/11/12 03:41:58;;;;;;;47.15;29.77;;;;;;;;;;5114642;28;20020;-72
2022/11/12 03:44:44;;;;;;;46.17;29.42;;;;;;;;;;5115891;28;20031;-72
2022/11/12 03:47:29;;;;;;;44.67;29.13;;;;;;;;;;5114609;28;20440;-73
2022/11/12 03:50:16;;;;;;;42.33;29.13;;;;;;;;;;5100394;28;20034;-72
2022/11/12 03:53:01;;;;;;;49.97;30.45;;;;;;;;;;5099490;28;20051;-73
2022/11/12 03:55:47;;;;;;;49.58;30.45;;;;;;;;;;5114766;28;20394;-73
2022/11/12 03:58:32;;;;;;;50.33;30.88;;;;;;;;;;5100244;28;20038;-72
2022/11/12 04:01:18;;;;;;;45.03;28.50;;;;;;;;;;5114566;28;20011;-73
2022/11/12 04:04:03;;;;;;;46.92;29.67;;;;;;;;;;5114721;28;20151;-72
2022/11/12 04:09:53;;;;;;;48.00;30.20;;;;;;;;;;5115278;28;20023;-72
2022/11/12 04:15:43;;;;;;;44.97;28.52;;;;;;;;;;5115021;28;20015;-74
2022/11/12 04:21:51;;;;;;;41.70;27.17;;;;;;;;;;5118268;28;20019;-73
2022/11/12 04:27:41;;;;;;;42.22;27.90;;;;;;;;;;5117797;28;20384;-74
2022/11/12 04:30:27;;;;;;;46.05;27.48;;;;;;;;;;5103620;28;20033;-73
2022/11/12 04:33:13;;;;;;;39.97;26.42;;;;;;;;;;5118522;28;20027;-73
2022/11/12 04:35:58;;;;;;;56.35;27.92;;;;;;;;;;5118030;28;20106;-73
2022/11/12 04:38:44;;;;;;;39.85;25.92;;;;;;;;;;5118188;28;20340;-73
2022/11/12 04:47:39;;;;;;;41.70;26.40;;;;;;;;;;5118463;28;20065;-74
2022/11/12 04:50:25;;;;;;;40.80;26.80;;;;;;;;;;5118496;28;20023;-73
2022/11/12 04:53:10;;;;;;;40.92;26.55;;;;;;;;;;5117623;28;20020;-72
2022/11/12 04:55:56;;;;;;;41.15;26.63;;;;;;;;;;5117491;28;20024;-74
2022/11/12 04:58:42;;;;;;;41.47;26.73;;;;;;;;;;5117737;28;20074;-74
2022/11/12 05:01:28;;;;;;;38.95;25.13;;;;;;;;;;5118116;28;20020;-74
2022/11/12 05:04:13;;;;;;;41.47;26.38;;;;;;;;;;5117662;28;20093;-73
2022/11/12 05:06:59;;;;;;;38.75;26.23;;;;;;;;;;5118181;28;20431;-74
2022/11/12 05:09:45;;;;;;;36.80;25.45;;;;;;;;;;5117117;28;20057;-73
2022/11/12 05:12:30;;;;;;;38.28;24.48;;;;;;;;;;5118052;28;20027;-73
2022/11/12 05:15:17;;;;;;;38.72;24.75;;;;;;;;;;5118268;28;20016;-74
2022/11/12 05:18:02;;;;;;;35.17;23.40;;;;;;;;;;5117455;28;20324;-74
2022/11/12 05:20:50;;;;;;;39.38;26.00;;;;;;;;;;5102234;28;20114;-73
2022/11/12 05:23:35;;;;;;;41.30;26.30;;;;;;;;;;5117236;28;20111;-74
2022/11/12 05:26:21;;;;;;;41.80;26.48;;;;;;;;;;5117059;28;20347;-74
2022/11/12 05:29:07;;;;;;;40.47;26.27;;;;;;;;;;5117282;28;20023;-73
2022/11/12 05:31:52;;;;;;;42.47;27.35;;;;;;;;;;5117572;28;20492;-73
2022/11/12 05:34:38;;;;;;;43.75;27.40;;;;;;;;;;5117273;28;20110;-74
2022/11/12 05:37:23;;;;;;;41.72;27.02;;;;;;;;;;5116449;28;20048;-73
2022/11/12 05:40:09;;;;;;;44.78;27.73;;;;;;;;;;5116446;28;20022;-73
2022/11/12 05:42:54;;;;;;;41.63;26.00;;;;;;;;;;5102412;28;20016;-73
2022/11/12 05:45:43;;;;;;;41.67;27.38;;;;;;;;;;5116540;28;20137;-73
2022/11/12 05:48:29;;;;;;;44.40;29.30;;;;;;;;;;5116742;28;20024;-73
2022/11/12 05:51:14;;;;;;;46.38;29.42;;;;;;;;;;5116646;28;20035;-73
2022/11/12 05:54:00;;;;;;;46.85;28.92;;;;;;;;;;5116648;28;20030;-72
2022/11/12 05:56:46;;;;;;;46.22;28.90;;;;;;;;;;5116560;28;20023;-73
2022/11/12 05:59:31;;;;;;;46.67;29.35;;;;;;;;;;5116648;28;20337;-72
2022/11/12 06:02:17;;;;;;;45.85;28.92;;;;;;;;;;5116081;28;20018;-72
2022/11/12 06:05:03;;;;;;;47.97;28.80;;;;;;;;;;5116539;28;20020;-73
2022/11/12 06:07:48;;;;;;;44.35;28.92;;;;;;;;;;5116899;28;20027;-72
2022/11/12 06:10:34;;;;;;;46.05;29.17;;;;;;;;;;5116176;28;20092;-73
2022/11/12 06:13:21;;;;;;;45.55;28.05;;;;;;;;;;5101406;28;20019;-72
2022/11/12 06:16:06;;;;;;;48.92;29.52;;;;;;;;;;5116789;28;20400;-73
2022/11/12 06:18:52;;;;;;;39.47;26.70;;;;;;;;;;5115444;28;20027;-72
2022/11/12 06:21:38;;;;;;;35.60;24.00;;;;;;;;;;5117012;28;20016;-72
2022/11/12 06:24:23;;;;;;;34.63;24.00;;;;;;;;;;5115760;28;20007;-72
2022/11/12 06:27:09;;;;;;;33.08;23.23;;;;;;;;;;5101568;28;20080;-72
2022/11/12 06:29:54;;;;;;;36.88;26.02;;;;;;;;;;5116206;28;20031;-73
2022/11/12 06:32:40;;;;;;;50.67;34.67;;;;;;;;;;5115974;28;20024;-74
2022/11/12 06:35:25;;;;;;;44.03;30.13;;;;;;;;;;5101139;28;20070;-74
2022/11/12 06:38:11;;;;;;;37.47;26.17;;;;;;;;;;5115080;28;20429;-73
2022/11/12 06:40:57;;;;;;;42.33;27.40;;;;;;;;;;5115403;28;20019;-73
2022/11/12 06:43:42;;;;;;;37.47;25.38;;;;;;;;;;5115946;28;20061;-73
2022/11/12 06:46:28;;;;;;;40.63;26.38;;;;;;;;;;5115545;28;20020;-74
2022/11/12 06:49:13;;;;;;;48.38;31.85;;;;;;;;;;5115893;28;20035;-72
2022/11/12 06:51:59;;;;;;;40.70;27.20;;;;;;;;;;5115745;28;20102;-71
2022/11/12 06:54:44;;;;;;;36.72;26.10;;;;;;;;;;5115354;28;20026;-72
2022/11/12 06:57:30;;;;;;;38.70;26.65;;;;;;;;;;5115098;28;20357;-71
2022/11/12 07:00:16;;;;;;;40.35;27.38;;;;;;;;;;5100433;28;20019;-71
2022/11/12 07:03:08;;;;;;;41.28;27.23;;;;;;;;;;5101518;28;20412;-72
2022/11/12 07:05:54;;;;;;;39.85;26.13;;;;;;;;;;5115699;28;20019;-72
2022/11/12 07:08:40;;;;;;;41.47;26.50;;;;;;;;;;5115695;28;20389;-72
2022/11/12 07:11:25;;;;;;;40.42;27.00;;;;;;;;;;5100615;28;20034;-72
2022/11/12 07:14:11;;;;;;;41.85;28.02;;;;;;;;;;5115216;28;20119;-72
2022/11/12 07:16:56;;;;;;;41.80;27.05;;;;;;;;;;5114934;28;20405;-73
2022/11/12 07:19:42;;;;;;;40.38;27.45;;;;;;;;;;5115104;28;20031;-70
2022/11/12 07:22:27;;;;;;;47.53;29.92;;;;;;;;;;5115600;28;20019;-71
2022/11/12 07:25:13;;;;;;;40.45;26.75;;;;;;;;;;5115502;28;20023;-71
2022/11/12 07:27:59;;;;;;;43.22;27.83;;;;;;;;;;5115040;28;20030;-72
2022/11/12 07:30:44;;;;;;;47.50;28.73;;;;;;;;;;5115144;28;20019;-72
2022/11/12 07:33:30;;;;;;;44.97;30.08;;;;;;;;;;5114582;28;20042;-72
2022/11/12 07:36:17;;;;;;;41.13;28.52;;;;;;;;;;5114944;28;20897;-72
2022/11/12 07:39:03;;;;;;;48.72;29.90;;;;;;;;;;5100662;28;20107;-72
2022/11/12 07:41:50;;;;;;;41.63;28.02;;;;;;;;;;5114638;28;20026;-72
2022/11/12 07:44:35;;;;;;;42.55;26.83;;;;;;;;;;5113380;28;20016;-72
2022/11/12 07:47:21;;;;;;;45.95;28.98;;;;;;;;;;5114779;28;20023;-72
2022/11/12 07:50:07;;;;;;;42.92;27.15;;;;;;;;;;5113830;28;20107;-72
2022/11/12 07:52:52;;;;;;;50.65;28.70;;;;;;;;;;5115389;28;20398;-72
2022/11/12 07:55:38;;;;;;;40.33;27.08;;;;;;;;;;5119494;28;20448;-71
2022/11/12 07:58:24;;;;;;;44.53;27.08;;;;;;;;;;5103794;28;20019;-72
2022/11/12 08:01:17;;;;;;;44.85;28.08;;;;;;;;;;5119909;28;20023;-72
2022/11/12 08:04:04;;;;;;;44.55;27.70;;;;;;;;;;5117881;28;20118;-71
2022/11/12 08:06:50;;;;;;;39.92;26.10;;;;;;;;;;5103833;28;20080;-71
2022/11/12 08:09:36;;;;;;;44.40;27.35;;;;;;;;;;5104095;28;20108;-71
2022/11/12 08:12:21;;;;;;;48.10;28.38;;;;;;;;;;5118473;28;20049;-70
2022/11/12 08:15:07;;;;;;;44.58;27.20;;;;;;;;;;5118410;28;20356;-70
2022/11/12 08:17:53;;;;;;;44.10;27.15;;;;;;;;;;5117860;28;20023;-70
2022/11/12 08:20:38;;;;;;;46.03;28.38;;;;;;;;;;5118551;28;20094;-71
2022/11/12 08:23:24;;;;;;;44.47;26.13;;;;;;;;;;5118550;28;20447;-71
2022/11/12 08:26:11;;;;;;;44.83;27.20;;;;;;;;;;5117900;28;20019;-71
2022/11/12 08:28:56;;;;;;;46.55;27.42;;;;;;;;;;5118406;28;20505;-71
2022/11/12 08:31:42;;;;;;;45.45;27.05;;;;;;;;;;5118068;28;20024;-72
2022/11/12 08:34:27;;;;;;;41.00;26.48;;;;;;;;;;5118621;28;20076;-71
2022/11/12 08:37:13;;;;;;;42.90;28.00;;;;;;;;;;5117128;28;20093;-71
2022/11/12 08:39:58;;;;;;;44.35;27.65;;;;;;;;;;5117784;28;20394;-72
2022/11/12 08:42:44;;;;;;;42.13;25.75;;;;;;;;;;5103404;28;20023;-72
2022/11/12 08:45:33;;;;;;;46.35;27.88;;;;;;;;;;5118222;28;20042;-71
2022/11/12 08:48:19;;;;;;;45.42;27.55;;;;;;;;;;5117172;28;20024;-72
2022/11/12 08:51:05;;;;;;;44.53;28.17;;;;;;;;;;5102771;28;20015;-73
2022/11/12 08:53:51;;;;;;;45.92;27.90;;;;;;;;;;5103301;28;20463;-72
2022/11/12 08:56:36;;;;;;;46.08;26.52;;;;;;;;;;5117814;28;20031;-71
2022/11/12 08:59:22;;;;;;;45.35;27.10;;;;;;;;;;5118110;28;20023;-71
2022/11/12 09:02:11;;;;;;;42.92;26.98;;;;;;;;;;5117482;28;20020;-71
2022/11/12 09:04:57;;;;;;;42.60;26.05;;;;;;;;;;5116660;28;20026;-72
2022/11/12 09:07:42;;;;;;;41.08;26.13;;;;;;;;;;5102595;28;20027;-72
2022/11/12 09:10:28;;;;;;;40.78;26.60;;;;;;;;;;5117820;28;20019;-72
2022/11/12 09:13:14;;;;;;;43.63;27.48;;;;;;;;;;5117305;28;20407;-71
2022/11/12 09:16:03;;;;;;;42.45;26.23;;;;;;;;;;5116678;28;20035;-72
2022/11/12 09:18:48;;;;;;;40.97;26.58;;;;;;;;;;5116514;28;20407;-72
2022/11/12 09:21:34;;;;;;;45.53;26.83;;;;;;;;;;5117183;28;20019;-71
2022/11/12 09:24:20;;;;;;;39.45;26.02;;;;;;;;;;5117286;28;20567;-71
2022/11/12 09:27:05;;;;;;;41.75;26.65;;;;;;;;;;5116574;28;20356;-71
2022/11/12 09:29:51;;;;;;;39.33;26.13;;;;;;;;;;5117376;28;20466;-71
2022/11/12 09:32:36;;;;;;;38.78;25.05;;;;;;;;;;5117092;28;20035;-71
2022/11/12 09:35:22;;;;;;;43.60;26.52;;;;;;;;;;5102158;28;20493;-70
2022/11/12 09:38:07;;;;;;;48.30;26.27;;;;;;;;;;5116315;28;20055;-72
2022/11/12 09:40:59;;;;;;;39.65;26.27;;;;;;;;;;5117252;28;20103;-71
2022/11/12 09:43:48;;;;;;;41.60;25.80;;;;;;;;;;5116188;28;20027;-72
2022/11/12 09:46:39;;;;;;;40.50;25.02;;;;;;;;;;5117684;28;20313;-71
2022/11/12 09:49:30;;;;;;;39.25;24.48;;;;;;;;;;5117929;28;20024;-72
2022/11/12 09:52:18;;;;;;;43.72;26.65;;;;;;;;;;5116830;28;20456;-71
2022/11/12 09:55:12;;;;;;;39.33;23.90;;;;;;;;;;5102054;28;20038;-73
2022/11/12 09:57:57;;;;;;;43.25;24.30;;;;;;;;;;5116570;28;20020;-71
2022/11/12 10:01:06;;;;;;;37.22;24.90;;;;;;;;;;5100985;28;20432;-71
2022/11/12 10:04:02;;;;;;;35.97;23.00;;;;;;;;;;5115979;28;20026;-72
2022/11/12 10:06:56;;;;;;;37.70;23.08;;;;;;;;;;5101760;28;20066;-71
2022/11/12 10:09:48;;;;;;;36.25;23.65;;;;;;;;;;5116311;28;20019;-72
2022/11/12 10:12:34;;;;;;;34.55;22.30;;;;;;;;;;5115867;28;20016;-72
2022/11/12 10:18:37;;;;;;;38.92;23.70;;;;;;;;;;5115326;28;20039;-71
2022/11/12 10:21:39;;;;;;;35.45;23.38;;;;;;;;;;5115874;28;20460;-70
2022/11/12 10:24:26;;;;;;;35.58;23.08;;;;;;;;;;5102514;28;20084;-72
2022/11/12 10:27:17;;;;;;;37.90;22.98;;;;;;;;;;5115914;28;20031;-71
2022/11/12 10:30:12;;;;;;;38.08;23.60;;;;;;;;;;5116575;28;20034;-73
2022/11/12 10:32:57;;;;;;;31.35;22.05;;;;;;;;;;5115894;28;20047;-71
2022/11/12 10:35:43;;;;;;;34.75;21.52;;;;;;;;;;5116710;28;20051;-72
2022/11/12 10:38:31;;;;;;;36.50;21.73;;;;;;;;;;5100675;28;20086;-71
2022/11/12 10:41:18;;;;;;;35.75;21.92;;;;;;;;;;5115801;28;20019;-71
2022/11/12 10:44:05;;;;;;;34.58;21.88;;;;;;;;;;5114919;28;20020;-71
2022/11/12 10:47:11;;;;;;;35.00;21.73;;;;;;;;;;5116558;28;20019;-71
2022/11/12 10:50:12;;;;;;;37.35;20.98;;;;;;;;;;5117014;27;20023;-71
2022/11/12 10:52:59;;;;;;;38.60;23.20;;;;;;;;;;5115561;28;20439;-72
2022/11/12 10:55:56;;;;;;;42.67;23.17;;;;;;;;;;5115049;28;20027;-71
2022/11/12 10:58:42;;;;;;;33.67;21.27;;;;;;;;;;5115980;28;20031;-72
2022/11/12 11:01:27;;;;;;;32.75;21.38;;;;;;;;;;5101669;28;20020;-71
2022/11/12 11:04:39;;;;;;;35.05;21.85;;;;;;;;;;5100651;28;20034;-72
2022/11/12 11:07:25;;;;;;;42.53;23.13;;;;;;;;;;5115409;28;20046;-71
2022/11/12 11:10:21;;;;;;;34.47;20.92;;;;;;;;;;5115681;28;20016;-71
2022/11/12 11:13:08;;;;;;;30.55;20.15;;;;;;;;;;5115310;28;20041;-72
2022/11/12 11:15:59;;;;;;;33.13;21.38;;;;;;;;;;5116106;27;20031;-72
2022/11/12 11:18:47;;;;;;;30.35;21.40;;;;;;;;;;5115086;28;20024;-70
2022/11/12 11:21:38;;;;;;;34.88;21.15;;;;;;;;;;5108673;28;20066;-71
2022/11/12 11:24:31;;;;;;;31.60;21.25;;;;;;;;;;5099922;28;20110;-71
2022/11/12 11:27:32;;;;;;;29.90;19.73;;;;;;;;;;5100395;28;20031;-72
2022/11/12 11:30:18;;;;;;;31.38;20.25;;;;;;;;;;5099799;28;20028;-72
2022/11/12 11:33:24;;;;;;;33.95;20.48;;;;;;;;;;5099937;28;20020;-72
2022/11/12 11:36:10;;;;;;;28.25;18.83;;;;;;;;;;5086245;28;20461;-72
2022/11/12 11:39:00;;;;;;;30.35;19.75;;;;;;;;;;5100072;28;20058;-72
2022/11/12 11:41:57;;;;;;;30.65;19.33;;;;;;;;;;5114716;28;20047;-72
2022/11/12 11:44:49;;;;;;;32.22;18.00;;;;;;;;;;5100012;28;20448;-72
2022/11/12 11:47:49;;;;;;;33.13;19.75;;;;;;;;;;5114448;28;20031;-72
2022/11/12 11:50:40;;;;;;;28.30;19.15;;;;;;;;;;5114575;28;20028;-71
2022/11/12 11:53:28;;;;;;;27.75;18.63;;;;;;;;;;5114636;28;20448;-70
2022/11/12 11:56:19;;;;;;;27.27;17.50;;;;;;;;;;5115017;28;20423;-71
2022/11/12 11:59:11;;;;;;;28.73;17.88;;;;;;;;;;5099922;28;20027;-71
2022/11/12 12:02:04;;;;;;;27.85;18.27;;;;;;;;;;5113904;28;20057;-71
2022/11/12 12:05:08;;;;;;;29.65;18.70;;;;;;;;;;5099461;28;20019;-71
2022/11/12 12:08:01;;;;;;;27.75;18.27;;;;;;;;;;5114686;28;20030;-72
2022/11/12 12:10:56;;;;;;;31.30;19.65;;;;;;;;;;5115290;28;20023;-73
2022/11/12 12:13:49;;;;;;;24.52;15.93;;;;;;;;;;5099471;28;20032;-72
2022/11/12 12:16:43;;;;;;;26.83;16.67;;;;;;;;;;5114969;28;20015;-73
2022/11/12 12:19:44;;;;;;;25.63;17.48;;;;;;;;;;5114380;28;20059;-72
2022/11/12 12:22:43;;;;;;;25.58;16.80;;;;;;;;;;5116002;28;20016;-71
2022/11/12 12:25:31;;;;;;;32.00;18.55;;;;;;;;;;5115967;28;20085;-72
2022/11/12 12:28:36;;;;;;;30.60;18.52;;;;;;;;;;5115045;28;20102;-71
2022/11/12 12:31:24;;;;;;;28.80;16.60;;;;;;;;;;5100322;28;20024;-71
2022/11/12 12:34:13;;;;;;;28.80;17.77;;;;;;;;;;5099592;28;20023;-73
2022/11/12 12:37:03;;;;;;;28.92;17.90;;;;;;;;;;5114152;28;20130;-71
2022/11/12 12:39:49;;;;;;;27.52;17.45;;;;;;;;;;5114503;28;20024;-71
2022/11/12 12:42:41;;;;;;;38.45;18.52;;;;;;;;;;5118026;28;20031;-73
2022/11/12 12:45:35;;;;;;;29.58;17.90;;;;;;;;;;5118303;28;20094;-70
2022/11/12 12:48:26;;;;;;;28.77;17.23;;;;;;;;;;5117641;28;20027;-72
2022/11/12 12:51:12;;;;;;;26.23;17.13;;;;;;;;;;5118974;28;20050;-72
2022/11/12 12:53:58;;;;;;;29.60;18.30;;;;;;;;;;5117919;28;20471;-71
2022/11/12 12:56:45;;;;;;;26.70;17.75;;;;;;;;;;5117736;28;20027;-72
2022/11/12 12:59:31;;;;;;;25.48;16.58;;;;;;;;;;5118761;28;20115;-72
2022/11/12 13:02:20;;;;;;;25.83;16.48;;;;;;;;;;5117820;28;20015;-74
2022/11/12 13:05:20;;;;;;;33.83;17.20;;;;;;;;;;5117893;28;20016;-72
2022/11/12 13:08:17;;;;;;;29.15;17.75;;;;;;;;;;5118121;28;20020;-71
2022/11/12 13:11:03;;;;;;;28.83;16.80;;;;;;;;;;5117188;28;20077;-70
2022/11/12 13:13:48;;;;;;;27.20;16.73;;;;;;;;;;5117400;28;20023;-69
2022/11/12 13:16:52;;;;;;;31.38;18.02;;;;;;;;;;5117623;28;20039;-71
2022/11/12 13:19:46;;;;;;;28.77;16.40;;;;;;;;;;5117399;28;20019;-72
2022/11/12 13:22:31;;;;;;;29.73;17.60;;;;;;;;;;5117589;28;20023;-71
2022/11/12 13:25:17;;;;;;;25.60;16.95;;;;;;;;;;5116918;28;20020;-71
2022/11/12 13:28:03;;;;;;;26.60;17.20;;;;;;;;;;5117201;28;20019;-70
2022/11/12 13:30:49;;;;;;;28.30;17.42;;;;;;;;;;5116760;28;20024;-71
2022/11/12 13:33:35;;;;;;;25.98;16.13;;;;;;;;;;5117266;28;20020;-71
2022/11/12 13:36:28;;;;;;;34.88;18.65;;;;;;;;;;5101730;28;20050;-70
2022/11/12 13:39:15;;;;;;;32.78;16.83;;;;;;;;;;5101977;28;20027;-70
2022/11/12 13:45:22;;;;;;;32.67;17.65;;;;;;;;;;5116524;28;20394;-70
2022/11/12 13:48:11;;;;;;;29.63;18.30;;;;;;;;;;5116428;28;20448;-70
2022/11/12 13:51:00;;;;;;;26.08;17.05;;;;;;;;;;5116146;28;20035;-71
2022/11/12 13:53:46;;;;;;;26.50;16.90;;;;;;;;;;5116905;28;20016;-71
2022/11/12 13:56:33;;;;;;;25.25;16.95;;;;;;;;;;5117310;28;20023;-71
2022/11/12 13:59:20;;;;;;;26.33;16.73;;;;;;;;;;5116775;28;20348;-71
2022/11/12 14:02:32;;;;;;;25.38;16.63;;;;;;;;;;5117103;28;20428;-70
2022/11/12 14:05:37;;;;;;;28.33;18.33;;;;;;;;;;5116333;28;20031;-70
2022/11/12 14:08:23;;;;;;;28.17;17.80;;;;;;;;;;5116540;28;20360;-70
2022/11/12 14:11:14;;;;;;;30.63;17.27;;;;;;;;;;5116566;28;20120;-71
2022/11/12 14:14:19;;;;;;;28.50;17.63;;;;;;;;;;5115588;28;20093;-72
2022/11/12 14:17:30;;;;;;;26.95;16.90;;;;;;;;;;5116173;28;20103;-71
2022/11/12 14:20:25;;;;;;;27.20;16.98;;;;;;;;;;5116035;28;20027;-71
2022/11/12 14:23:13;;;;;;;30.80;18.10;;;;;;;;;;5101499;28;20020;-71
2022/11/12 14:25:58;;;;;;;29.58;17.38;;;;;;;;;;5101116;28;20043;-72
2022/11/12 14:28:44;;;;;;;35.20;17.95;;;;;;;;;;5115800;28;20436;-70
2022/11/12 14:31:30;;;;;;;27.95;17.65;;;;;;;;;;5115872;28;20355;-69
2022/11/12 14:34:26;;;;;;;28.77;17.63;;;;;;;;;;5115628;28;20447;-71
2022/11/12 14:37:31;;;;;;;29.05;17.25;;;;;;;;;;5115209;28;20051;-71
2022/11/12 14:40:17;;;;;;;30.40;17.70;;;;;;;;;;5115805;28;20027;-71
2022/11/12 14:43:03;;;;;;;27.10;17.85;;;;;;;;;;5115562;28;20031;-70
2022/11/12 14:45:50;;;;;;;30.52;18.10;;;;;;;;;;5115739;28;20020;-72
2022/11/12 14:49:07;;;;;;;27.38;18.35;;;;;;;;;;5115441;28;20042;-72
2022/11/12 14:51:55;;;;;;;29.70;17.60;;;;;;;;;;5082260;28;20177;-72
2022/11/12 14:55:01;;;;;;;29.25;17.83;;;;;;;;;;5115284;28;20521;-72
2022/11/12 14:57:47;;;;;;;30.45;17.58;;;;;;;;;;5114710;28;20024;-72
2022/11/12 15:00:37;;;;;;;28.65;18.48;;;;;;;;;;5100357;28;20034;-73
2022/11/12 15:03:25;;;;;;;33.45;19.23;;;;;;;;;;5115450;28;20020;-72
2022/11/12 15:06:10;;;;;;;35.22;20.98;;;;;;;;;;5115174;28;20130;-73
2022/11/12 15:08:57;;;;;;;36.03;20.85;;;;;;;;;;5114928;28;20081;-71
2022/11/12 15:11:45;;;;;;;34.63;19.98;;;;;;;;;;5114840;28;20023;-72
2022/11/12 15:14:32;;;;;;;34.35;20.73;;;;;;;;;;5114545;28;20034;-72
2022/11/12 15:17:27;;;;;;;35.72;21.73;;;;;;;;;;5114720;28;20107;-72
2022/11/12 15:20:13;;;;;;;30.92;20.45;;;;;;;;;;5099121;28;20020;-71
2022/11/12 15:22:59;;;;;;;38.00;22.05;;;;;;;;;;5114816;28;20405;-71
2022/11/12 15:25:45;;;;;;;34.97;22.10;;;;;;;;;;5114876;28;20048;-71
2022/11/12 15:28:30;;;;;;;32.47;20.52;;;;;;;;;;5114947;28;20053;-71
2022/11/12 15:31:20;;;;;;;46.60;27.15;;;;;;;;;;5115427;28;20031;-70
2022/11/12 15:34:24;;;;;;;46.47;26.35;;;;;;;;;;5114559;28;20028;-73
2022/11/12 15:37:11;;;;;;;43.58;23.38;;;;;;;;;;5114276;28;20047;-71
2022/11/12 15:39:58;;;;;;;40.90;22.42;;;;;;;;;;5114709;28;20111;-71
2022/11/12 15:42:43;;;;;;;41.08;23.88;;;;;;;;;;5114015;28;20451;-73
2022/11/12 15:45:29;;;;;;;41.53;23.23;;;;;;;;;;5114410;28;20098;-72
2022/11/12 15:48:15;;;;;;;40.55;22.77;;;;;;;;;;5114280;28;20448;-73
2022/11/12 15:51:00;;;;;;;40.22;22.65;;;;;;;;;;5114940;28;20039;-71
2022/11/12 15:53:46;;;;;;;36.90;21.55;;;;;;;;;;5114681;28;20027;-71
2022/11/12 15:56:32;;;;;;;36.33;22.55;;;;;;;;;;5116138;28;20023;-71
2022/11/12 15:59:17;;;;;;;38.38;22.05;;;;;;;;;;5107781;28;20102;-70
2022/11/12 16:02:07;;;;;;;37.50;23.52;;;;;;;;;;5115134;28;20031;-70
2022/11/12 16:04:53;;;;;;;41.75;23.65;;;;;;;;;;5115462;28;20027;-72
2022/11/12 16:07:39;;;;;;;35.60;21.95;;;;;;;;;;5113579;28;20453;-71
2022/11/12 16:10:24;;;;;;;35.35;21.48;;;;;;;;;;5114496;28;20394;-71
2022/11/12 16:13:15;;;;;;;39.08;22.60;;;;;;;;;;5114457;28;20115;-73
2022/11/12 16:16:03;;;;;;;40.65;22.33;;;;;;;;;;5118260;28;20059;-72
2022/11/12 16:18:49;;;;;;;42.22;23.98;;;;;;;;;;5118802;28;20024;-71
2022/11/12 16:21:34;;;;;;;44.20;23.45;;;;;;;;;;5117860;28;20012;-71
2022/11/12 16:24:20;;;;;;;47.17;23.80;;;;;;;;;;5118168;28;20108;-70
2022/11/12 16:27:08;;;;;;;43.38;22.33;;;;;;;;;;5117642;28;20566;-71
2022/11/12 16:29:54;;;;;;;37.78;22.52;;;;;;;;;;5103347;28;20028;-72
2022/11/12 16:32:40;;;;;;;44.60;23.60;;;;;;;;;;5120811;28;20043;-71
2022/11/12 16:35:26;;;;;;;39.35;22.15;;;;;;;;;;5096656;28;20027;-71
2022/11/12 16:38:13;;;;;;;40.97;22.45;;;;;;;;;;5116300;28;20051;-72
2022/11/12 16:40:59;;;;;;;40.45;22.38;;;;;;;;;;5118287;28;20080;-71
2022/11/12 16:43:45;;;;;;;43.38;22.58;;;;;;;;;;5118462;28;20023;-71
2022/11/12 16:46:34;;;;;;;37.95;22.85;;;;;;;;;;5118012;28;20153;-71